Rouen Airport

Airport
ICAO code: 
LFOP
IATA Code: 
URO
Summary
ICAO Region: 
EUR
Territory: 
Location: 
, Haute-Normandie
Serving: 
Rouen
Elevation: 
512 ft
Coordinates: 
Aerial View: 
49° 23' 3.019" N, 1° 10' 29.28" E
Metar
Observation
LFOP 240600Z AUTO 07006KT 7000 NSC 00/M01 Q1030 TEMPO 3000 BR
Station
Rouen
Date/Time
2022-01-24 06:00:00
Wind direction
70°
Wind speed
06 kts
Lowest cloud amount
nil significant cloud
Temperature
0°C
Dew point
-1°C
Humidity
92%
QNH
1030 hPa
Weather condition
n/a

Runways

Designator Length Width Surface Rops
5/23 0 0 UNK No/No
4/22 1700 45 ASP Yes/Yes
Airport map: 
Aerial View: 

SKYbrary Partners:

Safety knowledge contributed by: